SAMM/LGS METAR and TAF weather

Enter ICAO airport designator
Station Type Date Time Source
SAMM METAR 2019/08/19 13:20 UTC NOAA

SAMM 191320Z 36002KT 6000 VCFG SCT010 OVC025 M01/M01 Q1024


Station Type Date Time Source
SAMM Decoded METAR 2019/08/19 13:20 UTC NOAA

Station name not available
Aug 19, 2019 - 09:20 AM EDT / 2019.08.19 1320 UTC
Wind: from the N (360 degrees) at 2 MPH (2 KT):0
Visibility: 3 mile(s):0
Sky conditions: overcast
Weather: fog in the vicinity
Temperature: 30 F (-1 C)
Dew Point: 30 F (-1 C)
Relative Humidity: 100%
Pressure (altimeter): 30.24 in. Hg (1024 hPa)
ob: SAMM 191320Z 36002KT 6000 VCFG SCT010 OVC025 M01/M01 Q1024
cycle: 13

Station Type Date Time Source
SAMM TAF UTC NOAA

Error!

Example: see airport list